Startpagina
METAR-TAF:

METAR-TAF

Vliegvelden :

Wellington, Nieuw-Zeeland

breedte: 41-20S, lengte: 174-48E, hoogte: 12 m

Actueel weer

Dit bericht is 32 minuten geleden gemaakt, om 19:30 UTC
Wind 19 kt uit het noorden
Temperatuur 18°C
Vochtigheid 77%
Druk 1015 hPa
Zicht 10 km of meer

METAR: NZWN 241930Z AUTO 01019KT 9999 OVC017/// 18/14 Q1015 NOSIG

Tijdstip: 09:02 (20:02 UTC)

Verwachting

Dit bericht is 2 uur en het 56 minuten geleden gemaakt, om 17:06 UTC
Verwachting geldig van 24 om 18 UTC tot 25 om 18 UTC
Wind 20 kt uit het noorden
Zicht 10 km of meer
Verspreide wolken op 2000 ft
Wijzigt naar
van 25 om 10 UTC tot 25 om 12 UTC
Wind 10 kt uit het noordnoordwesten
Gebroken wolken op 1200 ft

TAF: NZWN 241706Z 2418/2518 36020KT 9999 SCT020 BECMG 2510/2512 34010KT BKN012

Waarnemingen en weersverwachtingen van meer dan 4000 vliegvelden (METAR en TAF).

De beschikbare stations zijn de gele en rode punten op de kaart.

Ga met uw muis naar het station om de naam te zien.

Klik dan om waarnemingen en weersverwachtingen te zien.

kaart wijzigen: klik op de groene knoppen met een zwart kruis om in te zoomen, op de groene knop met een streepje om uit te zoomen of op de groene pijlen voor aangrenzende kaarten.


METAR-TAF: